Terminal Aerodrome Forecast
Issued by NWS

Home | Current Version | Previous Version | Text Only | Print | Product List | Glossary On
Versions: 1 2 3 4 5 6 7 8 9 10 11 12
000
FTUS45 KFGZ 031141
TAFPGA
TAF
KPGA 031141Z 0312/0412 19006KT P6SM BKN100
      TEMPO 0320/0324 VRB15G25KT -SHRA BKN080=

USA.gov is the U.S. government's official web portal to all federal, state and local government web resources and services.